Flight Track Log - Related Links

Times and Time Zones

All times are in EDT time to prevent confusion due to time zone crossing. See the UAL481 flight status page for this flight to view local times or setup timezone preferences in your user account.


Time Position Orientation Groundspeed Altitude Reporting Facility
EDT Latitude Longitude Course Direction KTS MPH feet Rate Location/Type
Fri 05:54:38 PM 42.7694 -73.8089 283° West 165 190 1,500  Level Boston Center
Fri 05:56:00 PM 42.7833 -74.0464 270° West  Level FlightAware Approximate
Fri 05:56:02 PM 42.8483 -73.8306 349° North 226 260 4,800  Level Boston Center
Fri 05:56:51 PM 42.8894 -73.8797 319° Northwest 258 297 6,800 3,164 Climbing Boston Center
Fri 05:57:00 PM 42.8041 -74.1725 284° West  Level FlightAware Approximate
Fri 05:57:52 PM 42.9447 -73.9492 317° Northwest 266 306 10,600  Level Boston Center
Fri 05:58:00 PM 42.8270 -74.2986 284° West  Level FlightAware Approximate
Fri 05:58:52 PM 43.0083 -74.0300 317° Northwest 292 336 11,700  Level Boston Center
Fri 05:59:00 PM 42.8487 -74.4251 283° West  Level FlightAware Approximate
Fri 05:59:52 PM 43.0819 -74.1172 319° Northwest 344 396 14,900  Level Boston Center
Fri 06:00:53 PM 43.1178 -74.2433 291° West 351 404 17,000 2,118 Climbing Boston Center
Fri 06:01:51 PM 43.1153 -74.3856 269° West 362 417 19,100 2,118 Climbing Boston Center
Fri 06:02:52 PM 43.1189 -74.5336 272° West 375 432 21,200 1,967 Climbing Boston Center
Fri 06:03:53 PM 43.1244 -74.6847 273° West 388 447 23,100 1,835 Climbing Boston Center
Fri 06:04:53 PM 43.1297 -74.8356 273° West 398 458 24,900 1,714 Climbing Boston Center
Fri 06:05:52 PM 43.1306 -74.9864 270° West 403 464 26,500 1,462 Climbing Boston Center
Fri 06:06:52 PM 43.1311 -75.1486 270° West 409 471 27,800 1,150 Climbing Boston Center
Fri 06:07:52 PM 43.1317 -75.2911 270° West 414 476 28,800 1,240 Climbing Boston Center
Fri 06:08:53 PM 43.1339 -75.4506 271° West 424 488 30,300 1,574 Climbing Boston Center
Fri 06:09:54 PM 43.1358 -75.6069 271° West 424 488 32,000 1,678 Climbing Boston Center
Fri 06:10:51 PM 43.1356 -75.7636 270° West 419 482 33,600 966 Climbing Boston Center
Fri 06:11:52 PM 43.1394 -75.9147 272° West 414 476 33,900 347 Climbing Boston Center
Fri 06:12:52 PM 43.1389 -76.0656 270° West 408 470 34,300 411 Climbing Boston Center
Fri 06:16:44 PM 43.1381 -76.6681 270° West 390 449 35,900 349 Climbing Cleveland Center
Fri 06:17:44 PM 43.1361 -76.8019 269° West 390 449 36,000 50 Climbing Cleveland Center
Fri 06:18:44 PM 43.1369 -76.9528 270° West 390 449 36,000  Level Cleveland Center
Fri 06:19:44 PM 43.1353 -77.1036 269° West 395 455 36,000  Level Cleveland Center
Fri 06:20:44 PM 43.1356 -77.2572 270° West 400 460 36,000  Level Cleveland Center
Fri 06:21:44 PM 43.1317 -77.4083 268° West 405 466 36,000  Level Cleveland Center
Fri 06:22:44 PM 43.1314 -77.5592 270° West 405 466 36,000  Level Cleveland Center
Fri 06:23:44 PM 43.1311 -77.7156 270° West 405 466 36,000  Level Cleveland Center
Fri 06:24:44 PM 43.1286 -77.8664 269° West 405 466 36,000 -500 Level Cleveland Center
Fri 06:25:44 PM 43.1261 -78.0344 269° West 410 472 35,000 -1,000 Descending Cleveland Center
Fri 06:26:44 PM 43.1253 -78.1881 270° West 410 472 34,000 -500 Descending Cleveland Center
Fri 06:27:44 PM 43.1222 -78.3447 269° West 410 472 34,000  Level Cleveland Center
Fri 06:28:44 PM 43.1189 -78.4983 268° West 405 466 34,000  Level Cleveland Center
Fri 06:29:44 PM 43.1153 -78.6550 268° West 405 466 34,000  Level Cleveland Center
Fri 06:30:44 PM 43.1136 -78.8114 269° West 405 466 34,000  Level Cleveland Center
Fri 06:31:19 PM 43.1000 -78.8833 255° West 410 472 34,000  Level Toronto Center
Fri 06:32:19 PM 43.1000 -79.0333 270° West 410 472 34,000  Level Toronto Center
Fri 06:33:19 PM 43.1000 -79.2000 270° West 410 472 34,000  Level Toronto Center
Fri 06:34:19 PM 43.0833 -79.3333 260° West 410 472 34,000  Level Toronto Center
Fri 06:35:19 PM 43.0833 -79.5000 270° West 410 472 34,000  Level Toronto Center
Fri 06:36:19 PM 43.0833 -79.6500 270° West 410 472 34,000  Level Toronto Center
Fri 06:37:19 PM 43.0833 -79.8167 270° West 410 472 34,000  Level Toronto Center
Fri 06:38:19 PM 43.0667 -79.9833 262° West 410 472 34,000  Level Toronto Center
Fri 06:39:20 PM 43.0667 -80.1333 270° West 420 483 34,000  Level Toronto Center
Fri 06:40:19 PM 43.0667 -80.3000 270° West 420 483 34,000  Level Toronto Center
Fri 06:41:20 PM 43.0500 -80.4500 261° West 420 483 34,000  Level Toronto Center
Fri 06:42:20 PM 43.0500 -80.6167 270° West 420 483 34,000  Level Toronto Center
Fri 06:43:19 PM 43.0500 -80.7667 270° West 420 483 34,000  Level Toronto Center
Fri 06:44:20 PM 43.0333 -80.9167 261° West 420 483 34,000  Level Toronto Center
Fri 06:45:19 PM 43.0167 -81.1000 263° West 420 483 34,000  Level Toronto Center
Fri 06:46:19 PM 43.0167 -81.2333 270° West 420 483 34,000  Level Toronto Center
Fri 06:47:19 PM 43.0167 -81.4167 270° West 420 483 34,000  Level Toronto Center
Fri 06:48:19 PM 43.0167 -81.5667 270° West 420 483 34,000  Level Toronto Center
Fri 06:49:20 PM 43.0167 -81.7333 270° West 420 483 34,000  Level Toronto Center
Fri 06:50:19 PM 43.0167 -81.8833 270° West 420 483 34,000  Level Toronto Center
Fri 06:51:20 PM 43.0000 -82.0500 262° West 420 483 34,000  Level Toronto Center
Fri 06:52:19 PM 43.0000 -82.2167 270° West 420 483 34,000  Level Toronto Center
Fri 06:53:19 PM 43.0000 -82.3667 270° West 420 483 34,000  Level Toronto Center
Fri 06:54:20 PM 43.0167 -82.5000 280° West 400 460 34,000 -149 Level Toronto Center
Fri 06:55:20 PM 43.0333 -82.6667 278° West 400 460 33,700 -500 Descending Toronto Center
Fri 06:55:56 PM 43.0672 -82.7458 300° West 408 470 33,200 -1,000 Descending Cleveland Center
Fri 06:56:56 PM 43.0894 -82.8944 282° West 408 470 32,100 -600 Descending Cleveland Center
Fri 06:57:56 PM 43.0694 -83.0444 260° West 401 461 32,000 -50 Descending Cleveland Center
Fri 06:58:56 PM 43.0475 -83.1969 259° West 406 467 32,000  Level Cleveland Center
Fri 06:59:56 PM 43.0231 -83.3492 258° West 406 467 32,000  Level Cleveland Center
Fri 07:00:56 PM 43.0025 -83.5044 260° West 411 473 32,000  Level Cleveland Center
Fri 07:01:56 PM 42.9778 -83.6539 257° West 411 473 32,000  Level Cleveland Center
Fri 07:02:56 PM 42.9592 -83.8061 261° West 411 473 32,000  Level Cleveland Center
Fri 07:03:56 PM 42.9439 -83.9756 263° West 411 473 32,000  Level Cleveland Center
Fri 07:04:56 PM 42.9289 -84.1278 262° West 411 473 32,000  Level Cleveland Center
Fri 07:05:56 PM 42.9136 -84.2800 262° West 406 467 32,000  Level Cleveland Center
Fri 07:06:52 PM 42.9014 -84.4156 263° West 408 470 32,000  Level Chicago Center
Fri 07:07:55 PM 42.8858 -84.5694 262° West 410 472 32,000  Level Chicago Center
Fri 07:08:57 PM 42.8697 -84.7231 262° West 410 472 32,000  Level Chicago Center
Fri 07:09:59 PM 42.8533 -84.8767 262° West 412 474 32,000  Level Chicago Center
Fri 07:11:01 PM 42.8372 -85.0297 262° West 410 472 32,000 -48 Level Chicago Center
Fri 07:12:03 PM 42.8169 -85.2153 262° West 413 475 31,900 -968 Descending Chicago Center
Fri 07:13:05 PM 42.8003 -85.3692 262° West 410 472 30,000 -919 Descending Chicago Center
Fri 07:14:07 PM 42.7814 -85.5275 261° West 418 481 30,000  Level Chicago Center
Fri 07:15:09 PM 42.7531 -85.6833 256° West 421 484 30,000 -823 Level Chicago Center
Fri 07:16:11 PM 42.7242 -85.8381 256° West 419 482 28,300 -2,371 Descending Chicago Center
Fri 07:17:13 PM 42.6964 -85.9967 257° West 425 489 25,100 -2,710 Descending Chicago Center
Fri 07:18:15 PM 42.6672 -86.1531 256° West 426 490 22,700 -2,565 Descending Chicago Center
Fri 07:19:17 PM 42.6336 -86.3306 256° West 405 466 19,800 -2,016 Descending Chicago Center
Fri 07:20:20 PM 42.6056 -86.4761 255° West 398 458 18,500 -1,152 Descending Chicago Center
Fri 07:21:22 PM 42.5775 -86.6203 255° West 396 456 17,400 -1,161 Descending Chicago Center
Fri 07:22:24 PM 42.5517 -86.7644 256° West 393 452 16,100 -1,258 Descending Chicago Center
Fri 07:23:26 PM 42.5142 -86.8986 249° West 383 441 14,800 -1,306 Descending Chicago Center
Fri 07:24:28 PM 42.4775 -87.0339 250° West 383 441 13,400 -1,742 Descending Chicago Center
Fri 07:25:30 PM 42.4339 -87.1875 249° West 365 420 11,200 -1,645 Descending Chicago Center
Fri 07:26:32 PM 42.3997 -87.3133 250° West 359 413 10,000 -581 Descending Chicago Center
Fri 07:27:34 PM 42.3667 -87.4306 249° West 353 406 10,000  Level Chicago Center
Fri 07:28:36 PM 42.3275 -87.5514 246° West 356 410 10,000  Level Chicago Center
Fri 07:29:38 PM 42.2342 -87.6461 217° Southwest 350 403 10,000 -48 Level Chicago Center
Fri 07:30:40 PM 42.1675 -87.7156 218° Southwest 307 353 9,900 -774 Descending Chicago Center
Fri 07:31:42 PM 42.1033 -87.7819 218° Southwest 294 338 8,400 -1,392 Descending Chicago Center
Fri 07:32:45 PM 42.0914 -87.8836 261° West 292 336 7,000 -672 Descending Chicago Center
Fri 07:33:47 PM 42.0914 -87.9842 270° West 273 314 7,000 -387 Level Chicago Center
Fri 07:34:49 PM 42.0725 -88.0608 252° West 213 245 6,200 -1,597 Descending Chicago Center
Fri 07:35:51 PM 42.0181 -88.0631 182° South 196 226 3,700 -1,984 Descending Chicago Center
Fri 07:36:53 PM 41.9864 -88.0211 135° Southeast 177 204 2,100 -1,103 Descending Chicago Center
Fri 07:38:07 PM 41.9833 -87.9500 93° East 125 144 1,200 -730 Descending Chicago TRACON

Login

Don't have an account? Register now (free) for customized features, flight alerts, and more!